Time;durP1;ratioP1;P1;durP2;ratioP2;P2;SDS_P1;SDS_P2;PMS_P1;PMS_P2;Temp;Humidity;BMP_temperature;BMP_pressure;BME280_temperature;BME280_humidity;BME280_pressure;Samples;Min_cycle;Max_cycle;Signal;HPM_P1;HPM_P2
2023/12/31 00:00:10;;;;;;;8.02;4.60;;;8.00;99.90;;;;;;5113647;27;20095;-77
2023/12/31 00:02:39;;;;;;;12.57;5.88;;;8.00;99.90;;;;;;5142357;27;20054;-77
2023/12/31 00:05:05;;;;;;;7.15;4.32;;;8.00;99.90;;;;;;5163562;27;20030;-77
2023/12/31 00:07:31;;;;;;;6.30;4.00;;;8.00;99.90;;;;;;5131151;27;20047;-77
2023/12/31 00:09:57;;;;;;;7.63;4.18;;;8.40;99.90;;;;;;5119189;27;20039;-77
2023/12/31 00:12:23;;;;;;;9.60;4.30;;;7.90;99.90;;;;;;5155625;27;20047;-76
2023/12/31 00:14:51;;;;;;;7.45;4.22;;;8.00;99.90;;;;;;5134309;27;20426;-76
2023/12/31 00:17:16;;;;;;;10.80;4.88;;;8.10;99.90;;;;;;5113972;27;20126;-76
2023/12/31 00:19:42;;;;;;;11.73;4.15;;;8.00;99.90;;;;;;5132995;27;20524;-76
2023/12/31 00:22:08;;;;;;;9.82;3.88;;;8.00;99.90;;;;;;5124470;27;20099;-77
2023/12/31 00:24:34;;;;;;;9.13;3.30;;;8.00;99.90;;;;;;5143218;27;20084;-76
2023/12/31 00:27:00;;;;;;;7.80;3.70;;;8.20;99.90;;;;;;5123947;27;20077;-76
2023/12/31 00:29:28;;;;;;;8.93;5.50;;;8.60;99.90;;;;;;5109438;27;20412;-78
2023/12/31 00:31:56;;;;;;;8.02;4.50;;;8.10;99.90;;;;;;5134655;27;20043;-77
2023/12/31 00:34:22;;;;;;;8.20;3.92;;;8.40;99.90;;;;;;5108650;27;20042;-77
2023/12/31 00:36:48;;;;;;;7.40;3.60;;;8.10;99.90;;;;;;5130643;27;20035;-78
2023/12/31 00:39:18;;;;;;;8.35;3.38;;;9.00;99.90;;;;;;5092777;27;20066;-77
2023/12/31 00:41:43;;;;;;;7.28;3.38;;;8.90;99.90;;;;;;5127991;27;20054;-77
2023/12/31 00:44:09;;;;;;;7.40;3.78;;;8.20;99.90;;;;;;5120330;27;20079;-76
2023/12/31 00:46:35;;;;;;;7.18;3.78;;;8.10;99.90;;;;;;5113078;27;20509;-76
2023/12/31 00:49:01;;;;;;;6.88;3.35;;;8.20;99.90;;;;;;5121057;27;20051;-77
2023/12/31 00:51:26;;;;;;;8.73;3.60;;;8.70;99.90;;;;;;5118789;27;20040;-77
2023/12/31 00:53:52;;;;;;;8.38;3.53;;;8.10;99.90;;;;;;5136817;27;20047;-77
2023/12/31 00:56:18;;;;;;;4.95;3.15;;;8.10;99.90;;;;;;5119835;27;20035;-77
2023/12/31 00:58:44;;;;;;;7.00;3.40;;;8.20;99.90;;;;;;5097849;27;20047;-78
2023/12/31 01:01:09;;;;;;;9.90;3.30;;;8.10;99.90;;;;;;5103441;27;20039;-77
2023/12/31 01:03:35;;;;;;;9.90;4.75;;;8.10;99.90;;;;;;5121138;27;20040;-76
2023/12/31 01:06:07;;;;;;;13.77;3.80;;;8.10;99.90;;;;;;5123647;27;20047;-78
2023/12/31 01:08:33;;;;;;;6.05;3.20;;;8.10;99.90;;;;;;5118020;27;20095;-77
2023/12/31 01:10:59;;;;;;;8.50;3.10;;;8.10;99.90;;;;;;5122137;27;20031;-76
2023/12/31 01:13:25;;;;;;;8.82;3.25;;;8.00;99.90;;;;;;5117726;28;20073;-77
2023/12/31 01:15:57;;;;;;;10.75;3.47;;;8.00;99.90;;;;;;5117569;27;20043;-76
2023/12/31 01:18:23;;;;;;;6.97;3.60;;;8.00;99.90;;;;;;5134544;27;20058;-78
2023/12/31 01:20:48;;;;;;;6.13;2.80;;;8.00;99.90;;;;;;5131408;27;20035;-77
2023/12/31 01:23:14;;;;;;;6.30;3.20;;;8.00;99.90;;;;;;5110479;27;20047;-77
2023/12/31 01:25:40;;;;;;;6.25;3.38;;;8.00;99.90;;;;;;5109728;27;20052;-76
2023/12/31 01:28:06;;;;;;;5.63;2.95;;;8.00;99.90;;;;;;5117021;27;20102;-76
2023/12/31 01:30:32;;;;;;;8.27;3.63;;;8.00;99.90;;;;;;5120628;27;20073;-77
2023/12/31 01:33:01;;;;;;;7.63;3.25;;;8.00;99.90;;;;;;5124339;27;20039;-77
2023/12/31 01:35:30;;;;;;;7.45;3.40;;;8.00;99.90;;;;;;5128870;27;20031;-76
2023/12/31 01:37:56;;;;;;;5.90;3.33;;;8.00;99.90;;;;;;5138382;27;20146;-77
2023/12/31 01:40:21;;;;;;;8.65;3.42;;;8.00;99.90;;;;;;5126076;27;20042;-77
2023/12/31 01:42:47;;;;;;;5.53;3.08;;;7.90;99.90;;;;;;5145858;27;20042;-76
2023/12/31 01:45:14;;;;;;;6.28;2.58;;;8.60;99.90;;;;;;5150582;27;20038;-76
2023/12/31 01:47:40;;;;;;;6.65;3.05;;;7.90;99.90;;;;;;5128592;27;20047;-76
2023/12/31 01:50:07;;;;;;;6.13;2.90;;;7.90;99.90;;;;;;5120734;27;20039;-76
2023/12/31 01:52:34;;;;;;;9.38;5.00;;;7.80;99.90;;;;;;5148342;27;20070;-77
2023/12/31 01:55:04;;;;;;;7.82;3.92;;;7.80;99.90;;;;;;5141336;27;20076;-76
2023/12/31 01:57:33;;;;;;;9.13;3.63;;;7.70;99.90;;;;;;5162317;27;20053;-77
2023/12/31 02:00:00;;;;;;;6.57;3.47;;;7.70;99.90;;;;;;5143122;27;20051;-76
2023/12/31 02:02:26;;;;;;;3.78;2.50;;;7.70;99.90;;;;;;5122526;27;20026;-76
2023/12/31 02:04:52;;;;;;;4.45;2.50;;;7.70;99.90;;;;;;5121267;27;20051;-76
2023/12/31 02:07:20;;;;;;;4.95;2.83;;;7.70;99.90;;;;;;5157433;27;20170;-75
2023/12/31 02:09:46;;;;;;;5.13;2.72;;;7.70;99.90;;;;;;5161131;27;20035;-76
2023/12/31 02:12:11;;;;;;;6.40;2.45;;;7.60;99.90;;;;;;5152005;27;20050;-76
2023/12/31 02:14:37;;;;;;;5.78;2.72;;;7.60;99.90;;;;;;5118027;27;20130;-76
2023/12/31 02:17:04;;;;;;;4.22;2.72;;;7.60;99.90;;;;;;5122684;27;20118;-76
2023/12/31 02:19:30;;;;;;;4.50;2.10;;;7.60;99.90;;;;;;5121559;27;20047;-76
2023/12/31 02:21:56;;;;;;;4.82;2.22;;;7.90;99.90;;;;;;5114628;27;20049;-76
2023/12/31 02:24:30;;;;;;;6.25;2.47;;;7.70;99.90;;;;;;5137851;27;20089;-76
2023/12/31 02:26:56;;;;;;;4.00;2.40;;;7.70;99.90;;;;;;5124524;27;20040;-77
2023/12/31 02:29:22;;;;;;;4.05;2.33;;;7.70;99.90;;;;;;5147600;27;20047;-76
2023/12/31 02:31:47;;;;;;;4.00;2.50;;;7.70;99.90;;;;;;5133685;27;20037;-76
2023/12/31 02:34:13;;;;;;;3.97;2.45;;;7.70;99.90;;;;;;5175773;27;20031;-77
2023/12/31 02:36:39;;;;;;;4.15;2.30;;;7.70;99.90;;;;;;5115203;27;20066;-76
2023/12/31 02:39:05;;;;;;;4.03;2.33;;;7.70;99.90;;;;;;5150364;27;20476;-76
2023/12/31 02:41:32;;;;;;;4.85;2.50;;;7.70;99.90;;;;;;5156055;27;20032;-77
2023/12/31 02:43:58;;;;;;;5.53;2.38;;;7.70;99.90;;;;;;5140020;28;20080;-78
2023/12/31 02:46:23;;;;;;;3.83;2.33;;;7.70;99.90;;;;;;5098258;28;20118;-76
2023/12/31 02:48:49;;;;;;;4.63;2.47;;;7.70;99.90;;;;;;5147123;27;20043;-78
2023/12/31 02:51:15;;;;;;;5.65;2.38;;;8.20;99.90;;;;;;5118704;27;20047;-76
2023/12/31 02:53:40;;;;;;;4.80;2.20;;;8.30;99.90;;;;;;5147996;27;20058;-77
2023/12/31 02:56:06;;;;;;;3.92;2.33;;;7.80;99.90;;;;;;5150179;27;20060;-77
2023/12/31 02:58:31;;;;;;;4.68;2.28;;;7.70;99.90;;;;;;5119176;27;20098;-77
2023/12/31 03:00:59;;;;;;;5.90;2.40;;;7.70;99.90;;;;;;5150211;27;20121;-77
2023/12/31 03:03:25;;;;;;;7.28;2.38;;;7.70;99.90;;;;;;5130118;27;20043;-76
2023/12/31 03:05:51;;;;;;;4.20;2.58;;;7.70;99.90;;;;;;5133069;27;20077;-76
2023/12/31 03:08:16;;;;;;;3.65;2.30;;;7.70;99.90;;;;;;5160019;27;20045;-77
2023/12/31 03:10:42;;;;;;;6.18;2.05;;;7.70;99.90;;;;;;5131573;28;20092;-76
2023/12/31 03:13:08;;;;;;;5.47;2.40;;;7.70;99.90;;;;;;5114380;28;20110;-77
2023/12/31 03:15:33;;;;;;;4.13;2.10;;;7.80;99.90;;;;;;5124424;27;20449;-76
2023/12/31 03:17:59;;;;;;;4.57;2.30;;;7.70;99.90;;;;;;5133995;27;20049;-76
2023/12/31 03:20:25;;;;;;;5.53;2.35;;;7.70;99.90;;;;;;5138528;27;20799;-77
2023/12/31 03:22:51;;;;;;;4.75;2.78;;;7.70;99.90;;;;;;5127097;28;20435;-77
2023/12/31 03:25:17;;;;;;;4.47;2.25;;;7.70;99.90;;;;;;5103886;27;20039;-77
2023/12/31 03:27:45;;;;;;;5.50;2.30;;;7.70;99.90;;;;;;5142929;27;20046;-76
2023/12/31 03:30:12;;;;;;;;;;;7.70;99.90;;;;;;5107072;27;20043;-77
2023/12/31 03:32:38;;;;;;;5.10;2.42;;;7.70;99.90;;;;;;5106921;27;20341;-77
2023/12/31 03:35:04;;;;;;;6.32;3.25;;;7.70;99.90;;;;;;5126099;28;20065;-77
2023/12/31 03:37:31;;;;;;;4.63;2.80;;;7.60;99.90;;;;;;5132496;27;20076;-77
2023/12/31 03:39:57;;;;;;;5.68;2.67;;;7.50;99.90;;;;;;5134085;28;20046;-77
2023/12/31 03:42:27;;;;;;;7.60;3.00;;;7.50;99.90;;;;;;5117694;28;20108;-77
2023/12/31 03:44:53;;;;;;;5.55;3.17;;;7.40;99.90;;;;;;5115301;27;20049;-76
2023/12/31 03:47:18;;;;;;;6.38;3.40;;;7.40;99.90;;;;;;5111229;27;20043;-76
2023/12/31 03:49:44;;;;;;;5.18;2.63;;;7.30;99.90;;;;;;5128216;27;20047;-78
2023/12/31 03:52:10;;;;;;;4.00;2.78;;;7.30;99.90;;;;;;5141195;27;20031;-77
2023/12/31 03:54:41;;;;;;;6.40;2.88;;;7.30;99.90;;;;;;5129086;27;20039;-76
2023/12/31 03:57:09;;;;;;;6.13;2.60;;;8.20;99.90;;;;;;5127434;27;20408;-76
2023/12/31 03:59:36;;;;;;;5.85;2.80;;;7.20;99.90;;;;;;5107615;27;20137;-76
2023/12/31 04:02:02;;;;;;;4.30;2.58;;;7.20;99.90;;;;;;5157370;27;20482;-76
2023/12/31 04:04:29;;;;;;;5.60;3.17;;;7.60;99.90;;;;;;5119124;27;20411;-77
2023/12/31 04:06:55;;;;;;;5.78;2.70;;;7.20;99.90;;;;;;5131770;27;20047;-76
2023/12/31 04:09:20;;;;;;;4.60;2.70;;;7.40;99.90;;;;;;5104638;27;20088;-77
2023/12/31 04:11:46;;;;;;;5.35;2.88;;;7.20;99.90;;;;;;5114368;27;20060;-77
2023/12/31 04:14:12;;;;;;;8.48;2.80;;;7.20;99.90;;;;;;5145134;27;20099;-77
2023/12/31 04:16:38;;;;;;;4.95;2.67;;;7.10;99.90;;;;;;5134460;27;20123;-78
2023/12/31 04:19:03;;;;;;;4.65;2.70;;;7.20;99.90;;;;;;5131984;27;20481;-77
2023/12/31 04:21:29;;;;;;;4.88;2.60;;;7.10;99.90;;;;;;5122336;27;20469;-77
2023/12/31 04:23:58;;;;;;;4.25;3.08;;;7.10;99.90;;;;;;5128441;27;20054;-78
2023/12/31 04:26:23;;;;;;;4.75;3.13;;;7.10;99.90;;;;;;5123941;27;20475;-76
2023/12/31 04:28:49;;;;;;;4.75;2.70;;;7.10;99.90;;;;;;5133211;27;20122;-76
2023/12/31 04:31:15;;;;;;;5.32;3.03;;;7.10;99.90;;;;;;5139878;27;20050;-78
2023/12/31 04:33:41;;;;;;;5.68;2.95;;;7.10;99.90;;;;;;5105933;27;20055;-77
2023/12/31 04:36:07;;;;;;;5.32;2.92;;;7.10;99.90;;;;;;5128550;27;20046;-77
2023/12/31 04:38:32;;;;;;;5.15;2.85;;;7.10;99.90;;;;;;5160504;27;20042;-76
2023/12/31 04:40:58;;;;;;;5.80;2.83;;;7.10;99.90;;;;;;5124841;27;20388;-77
2023/12/31 04:43:25;;;;;;;5.50;2.78;;;7.10;99.90;;;;;;5120102;27;20051;-76
2023/12/31 04:45:51;;;;;;;5.97;3.28;;;7.10;99.90;;;;;;5106282;27;20447;-77
2023/12/31 04:48:17;;;;;;;4.95;2.95;;;7.10;99.90;;;;;;5156412;27;20476;-76
2023/12/31 04:50:43;;;;;;;7.82;3.25;;;7.10;99.90;;;;;;5129670;27;20481;-76
2023/12/31 04:53:09;;;;;;;5.10;3.15;;;7.40;99.90;;;;;;5113197;27;20134;-76
2023/12/31 04:55:34;;;;;;;6.90;2.88;;;7.10;99.90;;;;;;5096514;27;20079;-77
2023/12/31 04:58:00;;;;;;;5.82;3.10;;;7.10;99.90;;;;;;5169615;27;20038;-77
2023/12/31 05:00:28;;;;;;;4.75;3.03;;;7.10;99.90;;;;;;5123044;27;20066;-76
2023/12/31 05:02:54;;;;;;;7.75;2.90;;;7.10;99.90;;;;;;5114137;27;20046;-76
2023/12/31 05:05:21;;;;;;;6.38;3.17;;;7.10;99.90;;;;;;5109277;27;20039;-76
2023/12/31 05:07:48;;;;;;;6.68;3.03;;;7.10;99.90;;;;;;5115858;27;20055;-77
2023/12/31 05:10:14;;;;;;;5.20;2.90;;;7.30;99.90;;;;;;5127838;27;20049;-77
2023/12/31 05:12:44;;;;;;;4.75;3.00;;;7.10;99.90;;;;;;5123013;27;20129;-76
2023/12/31 05:15:10;;;;;;;7.57;2.92;;;7.10;99.90;;;;;;5129286;27;20108;-76
2023/12/31 05:17:38;;;;;;;11.75;3.03;;;7.10;99.90;;;;;;5139137;27;20047;-76
2023/12/31 05:20:07;;;;;;;5.72;3.20;;;7.10;99.90;;;;;;5130581;27;20177;-77
2023/12/31 05:22:33;;;;;;;6.45;3.05;;;7.10;99.90;;;;;;5123523;27;20042;-77
2023/12/31 05:24:59;;;;;;;5.50;3.17;;;7.20;99.90;;;;;;5115810;27;20038;-77
2023/12/31 05:27:28;;;;;;;4.88;2.97;;;7.10;99.90;;;;;;5130979;27;20074;-77
2023/12/31 05:29:57;;;;;;;10.73;3.40;;;7.20;99.90;;;;;;5118328;27;20500;-77
2023/12/31 05:32:23;;;;;;;6.05;3.10;;;7.10;99.90;;;;;;5125109;27;20035;-76
2023/12/31 05:34:48;;;;;;;5.60;2.92;;;7.80;99.90;;;;;;5108807;27;20035;-76
2023/12/31 05:37:14;;;;;;;7.05;3.40;;;7.20;99.90;;;;;;5130154;27;20145;-76
2023/12/31 05:39:40;;;;;;;5.43;3.17;;;8.10;99.90;;;;;;5140914;27;20091;-76
2023/12/31 05:42:09;;;;;;;5.95;3.08;;;7.40;99.90;;;;;;5140086;27;20058;-76
2023/12/31 05:44:34;;;;;;;5.90;3.47;;;7.10;99.90;;;;;;5135651;27;20617;-76
2023/12/31 05:47:00;;;;;;;7.70;3.70;;;7.20;99.90;;;;;;5112235;27;20082;-76
2023/12/31 05:49:26;;;;;;;5.65;3.50;;;7.20;99.90;;;;;;5129400;27;20043;-77
2023/12/31 05:51:51;;;;;;;4.80;3.40;;;7.20;99.90;;;;;;5150539;27;20039;-77
2023/12/31 05:54:17;;;;;;;7.53;3.58;;;7.20;99.90;;;;;;5151307;27;20388;-76
2023/12/31 05:56:43;;;;;;;8.20;3.92;;;7.20;99.90;;;;;;5140415;27;20064;-76
2023/12/31 05:59:08;;;;;;;7.30;3.53;;;7.20;99.90;;;;;;5165448;27;20037;-77
2023/12/31 06:01:34;;;;;;;8.13;3.28;;;7.20;99.90;;;;;;5132571;27;20099;-77
2023/12/31 06:04:01;;;;;;;7.13;3.30;;;7.20;99.90;;;;;;5111967;27;20077;-76
2023/12/31 06:06:26;;;;;;;5.18;3.40;;;7.20;99.90;;;;;;5145449;27;20043;-77
2023/12/31 06:08:52;;;;;;;6.65;3.60;;;7.20;99.90;;;;;;5157653;27;20549;-75
2023/12/31 06:11:21;;;;;;;6.30;3.85;;;7.20;99.90;;;;;;5124313;27;20042;-76
2023/12/31 06:13:46;;;;;;;7.05;3.65;;;7.20;99.90;;;;;;5166057;27;20035;-76
2023/12/31 06:16:12;;;;;;;6.22;3.60;;;7.20;99.90;;;;;;5136014;27;20054;-77
2023/12/31 06:18:38;;;;;;;7.78;3.92;;;7.20;99.90;;;;;;5129658;27;20038;-76
2023/12/31 06:21:04;;;;;;;7.18;3.67;;;7.20;99.90;;;;;;5151160;27;20046;-76
2023/12/31 06:23:30;;;;;;;6.40;3.30;;;7.20;99.90;;;;;;5139184;27;20042;-76
2023/12/31 06:25:59;;;;;;;7.35;3.78;;;7.30;99.90;;;;;;5148391;27;20051;-76
2023/12/31 06:28:27;;;;;;;5.75;3.63;;;7.20;99.90;;;;;;5178059;27;20050;-76
2023/12/31 06:30:53;;;;;;;5.65;3.67;;;7.30;99.90;;;;;;5143491;27;20065;-76
2023/12/31 06:33:19;;;;;;;5.35;3.78;;;7.30;99.90;;;;;;5133830;27;20039;-77
2023/12/31 06:35:44;;;;;;;8.10;3.80;;;7.20;99.90;;;;;;5109909;28;20039;-76
2023/12/31 06:38:10;;;;;;;5.35;3.42;;;7.30;99.90;;;;;;5102122;27;20043;-77
2023/12/31 06:40:36;;;;;;;7.60;3.47;;;7.30;99.90;;;;;;5105132;27;20427;-76
2023/12/31 06:43:01;;;;;;;6.53;3.53;;;7.30;99.90;;;;;;5103573;28;20054;-76
2023/12/31 06:45:27;;;;;;;8.27;3.50;;;7.30;99.90;;;;;;5118607;27;20055;-76
2023/12/31 06:47:52;;;;;;;4.13;3.00;;;8.00;99.90;;;;;;5152425;27;20046;-76
2023/12/31 06:50:18;;;;;;;9.38;3.50;;;7.30;99.90;;;;;;5122031;27;20039;-76
2023/12/31 06:52:44;;;;;;;6.57;3.55;;;7.30;99.90;;;;;;5148293;27;20438;-76
2023/12/31 06:55:11;;;;;;;4.82;3.33;;;7.30;99.90;;;;;;5104092;27;20138;-75
2023/12/31 06:57:37;;;;;;;4.50;3.17;;;7.30;99.90;;;;;;5126668;27;20447;-76
2023/12/31 07:00:03;;;;;;;5.18;3.17;;;7.40;99.90;;;;;;5135534;27;20082;-76
2023/12/31 07:02:30;;;;;;;6.32;3.58;;;7.30;99.90;;;;;;5135541;27;20043;-76
2023/12/31 07:04:55;;;;;;;4.80;3.50;;;7.30;99.90;;;;;;5142801;27;20078;-76
2023/12/31 07:07:21;;;;;;;5.60;3.50;;;7.40;99.90;;;;;;5124529;27;20046;-76
2023/12/31 07:09:46;;;;;;;6.38;3.25;;;7.40;99.90;;;;;;5140076;27;20050;-75
2023/12/31 07:12:12;;;;;;;6.13;3.40;;;7.30;99.90;;;;;;5133319;28;20044;-76
2023/12/31 07:14:38;;;;;;;6.38;3.50;;;7.70;99.90;;;;;;5120486;28;20023;-76
2023/12/31 07:17:06;;;;;;;4.57;3.17;;;7.30;99.90;;;;;;5151668;27;20254;-76
2023/12/31 07:19:32;;;;;;;6.00;3.60;;;7.30;99.90;;;;;;5144046;27;20593;-76
2023/12/31 07:21:59;;;;;;;5.00;3.45;;;7.40;99.90;;;;;;5119595;27;20431;-76
2023/12/31 07:24:26;;;;;;;6.30;3.67;;;7.40;99.90;;;;;;5154110;27;20042;-75
2023/12/31 07:26:56;;;;;;;5.68;3.78;;;7.30;99.90;;;;;;5144967;27;20047;-77
2023/12/31 07:29:22;;;;;;;4.87;3.37;;;7.40;99.90;;;;;;5129898;27;20034;-75
2023/12/31 07:31:48;;;;;;;4.75;3.42;;;7.80;99.90;;;;;;5132949;27;20054;-76
2023/12/31 07:34:15;;;;;;;6.97;3.28;;;7.30;99.90;;;;;;5115179;27;20074;-76
2023/12/31 07:36:41;;;;;;;6.00;3.20;;;7.40;99.90;;;;;;5153567;27;20046;-76
2023/12/31 07:39:07;;;;;;;5.10;3.45;;;7.40;99.90;;;;;;5130622;27;20183;-76
2023/12/31 07:41:32;;;;;;;5.72;3.15;;;7.40;99.90;;;;;;5147085;27;20154;-76
2023/12/31 07:44:01;;;;;;;5.13;3.40;;;7.40;99.90;;;;;;5130206;27;20122;-76
2023/12/31 07:46:28;;;;;;;7.32;3.90;;;7.40;99.90;;;;;;5151801;27;20074;-75
2023/12/31 07:48:54;;;;;;;5.30;3.25;;;7.50;99.90;;;;;;5126900;27;20497;-76
2023/12/31 07:51:23;;;;;;;4.45;3.25;;;7.50;99.90;;;;;;5132734;27;20043;-76
2023/12/31 07:53:49;;;;;;;4.78;3.17;;;7.50;99.90;;;;;;5137161;27;20062;-76
2023/12/31 07:56:16;;;;;;;4.30;2.90;;;7.60;99.90;;;;;;5126441;27;20062;-75
2023/12/31 07:58:42;;;;;;;4.30;3.03;;;7.60;99.90;;;;;;5126463;27;20039;-76
2023/12/31 08:01:08;;;;;;;4.60;3.15;;;7.70;99.90;;;;;;5148151;27;20112;-75
2023/12/31 08:03:33;;;;;;;5.68;3.67;;;7.70;99.90;;;;;;5124607;27;20408;-75
2023/12/31 08:05:59;;;;;;;6.68;3.75;;;7.70;99.90;;;;;;5145199;27;20035;-76
2023/12/31 08:08:25;;;;;;;5.50;3.00;;;7.80;99.90;;;;;;5105698;27;20054;-76
2023/12/31 08:10:51;;;;;;;5.25;3.28;;;7.80;99.90;;;;;;5131488;27;20126;-76
2023/12/31 08:13:17;;;;;;;5.45;3.10;;;8.10;99.90;;;;;;5122650;27;20109;-76
2023/12/31 08:15:42;;;;;;;6.07;3.05;;;7.90;99.90;;;;;;5124169;27;20043;-76
2023/12/31 08:18:08;;;;;;;6.30;3.40;;;8.00;99.90;;;;;;5137522;27;20043;-76
2023/12/31 08:20:38;;;;;;;5.05;3.30;;;8.00;99.90;;;;;;5109396;27;20500;-76
2023/12/31 08:23:04;;;;;;;4.85;2.83;;;8.70;99.90;;;;;;5122584;27;20047;-76
2023/12/31 08:25:30;;;;;;;5.50;3.20;;;8.10;99.90;;;;;;5146582;27;20041;-76
2023/12/31 08:27:56;;;;;;;5.30;3.10;;;8.10;99.90;;;;;;5125959;27;20126;-77
2023/12/31 08:30:26;;;;;;;5.32;3.00;;;8.10;99.90;;;;;;5118157;27;20047;-77
2023/12/31 08:32:52;;;;;;;4.25;3.00;;;8.10;99.90;;;;;;5115341;27;20047;-76
2023/12/31 08:35:23;;;;;;;7.50;3.53;;;8.10;99.90;;;;;;5141434;27;20117;-76
2023/12/31 08:37:48;;;;;;;4.30;3.05;;;8.10;99.90;;;;;;5153713;27;20066;-75
2023/12/31 08:40:14;;;;;;;7.53;3.13;;;8.00;99.90;;;;;;5153768;27;20492;-76
2023/12/31 08:42:41;;;;;;;4.10;2.70;;;8.00;99.90;;;;;;5140383;27;20086;-76
2023/12/31 08:45:10;;;;;;;5.10;3.03;;;8.10;99.90;;;;;;5123928;27;20445;-76
2023/12/31 08:47:37;;;;;;;5.07;3.13;;;8.00;99.90;;;;;;5089659;27;20042;-76
2023/12/31 08:50:08;;;;;;;7.63;2.93;;;8.00;99.90;;;;;;5157701;27;20515;-76
2023/12/31 08:52:44;;;;;;;4.78;3.00;;;8.00;99.90;;;;;;5117006;27;20023;-76
2023/12/31 08:55:10;;;;;;;7.32;3.53;;;8.00;99.90;;;;;;5125775;27;20039;-77
2023/12/31 08:57:39;;;;;;;4.00;2.83;;;8.00;99.90;;;;;;5136732;27;20043;-76
2023/12/31 09:00:06;;;;;;;6.40;3.20;;;8.20;99.90;;;;;;5113115;27;20154;-76
2023/12/31 09:02:32;;;;;;;8.07;3.13;;;8.10;99.90;;;;;;5149442;27;20454;-76
2023/12/31 09:05:01;;;;;;;4.78;3.55;;;8.10;99.90;;;;;;5118474;27;20098;-76
2023/12/31 09:07:26;;;;;;;5.65;3.15;;;8.70;99.90;;;;;;5148738;27;20600;-77
2023/12/31 09:09:52;;;;;;;5.53;3.30;;;8.10;99.90;;;;;;5139435;27;20054;-75
2023/12/31 09:12:18;;;;;;;5.20;3.08;;;8.10;99.90;;;;;;5148321;27;20049;-76
2023/12/31 09:14:43;;;;;;;3.80;2.67;;;8.10;99.90;;;;;;5142002;27;20043;-75
2023/12/31 09:17:10;;;;;;;4.38;2.80;;;8.70;99.90;;;;;;5133495;27;20122;-74
2023/12/31 09:19:37;;;;;;;6.05;2.97;;;8.20;99.90;;;;;;5138437;27;20393;-76
2023/12/31 09:22:03;;;;;;;4.22;2.83;;;8.20;99.90;;;;;;5140806;27;20046;-76
2023/12/31 09:24:32;;;;;;;7.63;5.53;;;8.20;99.90;;;;;;5140365;27;20103;-76
2023/12/31 09:27:02;;;;;;;9.40;4.40;;;8.30;99.90;;;;;;5146053;27;20034;-76
2023/12/31 09:29:27;;;;;;;10.55;8.20;;;8.30;99.90;;;;;;5153974;27;20073;-76
2023/12/31 09:31:53;;;;;;;7.50;4.15;;;8.40;99.90;;;;;;5155372;27;20037;-77
2023/12/31 09:34:22;;;;;;;6.40;4.28;;;8.40;99.90;;;;;;5129826;27;20084;-76
2023/12/31 09:36:48;;;;;;;4.68;3.10;;;8.50;99.90;;;;;;5149789;27;20039;-76
2023/12/31 09:39:13;;;;;;;5.30;3.22;;;8.50;99.90;;;;;;5127226;27;20049;-76
2023/12/31 09:41:39;;;;;;;3.90;3.03;;;8.50;99.90;;;;;;5125418;27;20421;-76
2023/12/31 09:44:06;;;;;;;4.93;3.20;;;8.50;99.90;;;;;;5103822;27;20047;-76
2023/12/31 09:46:34;;;;;;;4.10;3.03;;;8.70;99.90;;;;;;5134996;27;20499;-77
2023/12/31 09:49:02;;;;;;;;;;;8.80;99.90;;;;;;5132142;27;20088;-76
2023/12/31 09:51:29;;;;;;;5.53;3.60;;;8.60;99.90;;;;;;5117451;27;19922;-76
2023/12/31 09:53:57;;;;;;;10.53;5.37;;;8.70;99.90;;;;;;5126727;27;20054;-76
2023/12/31 09:56:23;;;;;;;7.88;4.55;;;8.90;99.90;;;;;;5133198;27;20038;-77
2023/12/31 09:58:51;;;;;;;10.07;5.90;;;8.70;99.90;;;;;;5120777;27;20089;-77
2023/12/31 10:01:17;;;;;;;;;;;8.70;99.90;;;;;;5141450;27;20035;-76
2023/12/31 10:03:45;;;;;;;9.63;5.30;;;8.90;99.90;;;;;;5117557;27;19919;-76
2023/12/31 10:06:11;;;;;;;6.93;4.73;;;8.80;99.90;;;;;;5127391;27;20118;-77
2023/12/31 10:08:41;;;;;;;5.70;3.75;;;8.80;99.90;;;;;;5111870;27;20276;-76
2023/12/31 10:11:09;;;;;;;8.68;4.50;;;8.80;99.90;;;;;;5138951;27;20127;-75
2023/12/31 10:13:34;;;;;;;5.82;3.78;;;8.80;99.90;;;;;;5131644;27;20043;-76
2023/12/31 10:16:13;;;;;;;6.28;4.10;;;8.80;99.90;;;;;;5156695;27;20041;-76
2023/12/31 10:18:39;;;;;;;7.22;3.65;;;8.80;99.90;;;;;;5114378;27;20086;-75
2023/12/31 10:21:08;;;;;;;8.32;5.15;;;8.80;99.90;;;;;;5121044;27;20046;-76
2023/12/31 10:23:34;;;;;;;6.95;5.22;;;8.80;99.90;;;;;;5120765;27;20032;-76
2023/12/31 10:26:00;;;;;;;6.93;3.75;;;8.90;99.90;;;;;;5144034;27;20092;-75
2023/12/31 10:28:27;;;;;;;6.20;3.58;;;8.90;99.90;;;;;;5130315;27;20532;-76
2023/12/31 10:30:53;;;;;;;6.65;3.45;;;8.90;99.90;;;;;;5141136;27;20043;-76
2023/12/31 10:33:27;;;;;;;4.75;3.38;;;8.90;99.90;;;;;;5160102;27;20064;-76
2023/12/31 10:36:04;;;;;;;6.95;3.70;;;9.00;99.90;;;;;;5143510;27;20035;-76
2023/12/31 10:38:43;;;;;;;6.30;4.00;;;9.00;99.90;;;;;;5147856;27;20227;-77
2023/12/31 10:41:10;;;;;;;5.43;3.22;;;9.10;99.90;;;;;;5140608;27;20031;-76
2023/12/31 10:43:40;;;;;;;5.82;4.32;;;10.00;99.90;;;;;;5158012;27;20054;-77
2023/12/31 10:46:07;;;;;;;4.82;3.15;;;9.10;99.90;;;;;;5143559;27;20050;-75
2023/12/31 10:48:41;;;;;;;5.00;2.97;;;9.30;99.90;;;;;;5150504;27;20069;-76
2023/12/31 10:51:13;;;;;;;5.45;3.50;;;9.10;99.90;;;;;;5127078;27;20311;-77
2023/12/31 10:53:41;;;;;;;5.68;3.33;;;9.10;99.90;;;;;;5145946;27;20039;-76
2023/12/31 10:56:12;;;;;;;5.57;3.33;;;9.10;99.90;;;;;;5135972;27;20039;-76
2023/12/31 10:58:41;;;;;;;;;;;9.10;99.90;;;;;;5158064;27;20035;-76
2023/12/31 11:01:07;;;;;;;5.45;3.22;;;9.10;99.90;;;;;;5141877;27;19919;-76
2023/12/31 11:03:33;;;;;;;4.85;3.10;;;9.20;99.90;;;;;;5107854;27;20051;-75
2023/12/31 11:06:01;;;;;;;6.78;3.10;;;9.30;99.90;;;;;;5124553;27;20126;-76
2023/12/31 11:08:28;;;;;;;7.13;3.42;;;9.30;99.90;;;;;;5127724;27;20043;-76
2023/12/31 11:10:54;;;;;;;5.97;3.38;;;10.00;99.90;;;;;;5107954;27;20522;-77
2023/12/31 11:13:22;;;;;;;6.28;3.50;;;9.40;99.90;;;;;;5128461;27;20038;-76
2023/12/31 11:15:50;;;;;;;5.30;3.95;;;9.40;99.90;;;;;;5136517;27;20097;-76
2023/12/31 11:18:44;;;;;;;6.60;3.40;;;9.50;99.90;;;;;;5134768;27;20062;-76
2023/12/31 11:21:37;;;;;;;6.10;3.63;;;9.40;99.90;;;;;;5133951;27;20065;-76
2023/12/31 11:24:09;;;;;;;24.70;16.95;;;9.50;99.90;;;;;;5135254;27;20039;-77
2023/12/31 11:26:34;;;;;;;6.70;3.90;;;9.30;99.90;;;;;;5122043;27;20035;-77
2023/12/31 11:29:01;;;;;;;9.20;4.15;;;9.30;99.90;;;;;;5121910;27;20043;-78
2023/12/31 11:31:28;;;;;;;7.18;3.45;;;9.20;99.90;;;;;;5111776;27;20449;-78
2023/12/31 11:33:54;;;;;;;16.75;4.05;;;9.20;99.90;;;;;;5146500;27;20043;-79
2023/12/31 11:36:22;;;;;;;6.07;3.83;;;9.10;99.90;;;;;;5114904;27;20042;-77
2023/12/31 11:38:56;;;;;;;6.18;4.28;;;9.10;99.90;;;;;;5158124;27;20035;-78
2023/12/31 11:41:30;;;;;;;7.78;4.38;;;9.00;99.90;;;;;;5125171;27;20054;-78
2023/12/31 11:43:57;;;;;;;7.63;4.35;;;8.90;99.90;;;;;;5162213;27;20046;-78
2023/12/31 11:46:37;;;;;;;8.20;4.82;;;8.90;99.90;;;;;;5157469;27;20113;-78
2023/12/31 11:49:03;;;;;;;6.97;4.40;;;8.80;99.90;;;;;;5114055;27;20039;-78
2023/12/31 11:51:57;;;;;;;4.30;2.67;;;8.80;99.90;;;;;;5135129;27;20400;-78
2023/12/31 11:54:43;;;;;;;4.80;2.67;;;8.70;99.90;;;;;;5156070;27;20049;-79
2023/12/31 11:57:10;;;;;;;3.70;2.35;;;8.70;99.90;;;;;;5134338;27;20051;-77
2023/12/31 11:59:42;;;;;;;3.60;2.10;;;8.80;99.90;;;;;;5120819;27;20053;-79
2023/12/31 12:02:07;;;;;;;3.42;1.92;;;8.50;99.90;;;;;;5164083;27;20146;-79
2023/12/31 12:04:34;;;;;;;4.78;2.22;;;8.50;99.90;;;;;;5181449;27;20042;-79
2023/12/31 12:07:03;;;;;;;3.20;1.83;;;8.40;99.90;;;;;;5138626;27;20454;-78
2023/12/31 12:09:31;;;;;;;5.65;3.80;;;8.40;99.90;;;;;;5135411;27;20040;-78
2023/12/31 12:12:02;;;;;;;3.05;1.77;;;8.40;99.90;;;;;;5110276;27;20058;-79
2023/12/31 12:14:31;;;;;;;5.25;1.88;;;8.20;99.90;;;;;;5133778;27;20043;-78
2023/12/31 12:16:58;;;;;;;2.55;1.63;;;9.10;99.90;;;;;;5129374;27;20057;-77
2023/12/31 12:19:25;;;;;;;8.75;2.13;;;8.30;99.90;;;;;;5121724;27;20085;-78
2023/12/31 12:21:51;;;;;;;2.88;1.40;;;8.10;99.90;;;;;;5110825;27;20040;-77
2023/12/31 12:24:18;;;;;;;1.92;1.30;;;8.80;99.90;;;;;;5111566;27;20045;-77
2023/12/31 12:26:47;;;;;;;9.40;6.38;;;8.10;99.90;;;;;;5127276;27;20039;-77
2023/12/31 12:29:16;;;;;;;5.35;3.47;;;8.50;99.90;;;;;;5114501;27;20095;-77
2023/12/31 12:31:47;;;;;;;5.13;3.22;;;8.10;99.90;;;;;;5144583;27;20039;-79
2023/12/31 12:34:14;;;;;;;3.30;1.80;;;8.20;99.90;;;;;;5129582;27;20043;-78
2023/12/31 12:36:44;;;;;;;5.07;1.88;;;8.00;99.90;;;;;;5154930;27;20050;-77
2023/12/31 12:39:14;;;;;;;4.30;1.80;;;8.10;99.90;;;;;;5136816;27;20039;-77
2023/12/31 12:41:45;;;;;;;3.60;2.25;;;8.30;99.90;;;;;;5114648;27;20062;-77
2023/12/31 12:44:12;;;;;;;5.55;2.95;;;8.40;99.90;;;;;;5110338;27;20043;-77
2023/12/31 12:46:40;;;;;;;4.38;2.40;;;8.50;99.90;;;;;;5159795;27;20512;-76
2023/12/31 12:49:07;;;;;;;6.25;2.47;;;8.60;99.90;;;;;;5135446;27;20043;-77
2023/12/31 12:51:34;;;;;;;6.35;3.63;;;8.60;99.90;;;;;;5139550;27;20043;-77
2023/12/31 12:54:01;;;;;;;6.28;3.40;;;8.70;99.90;;;;;;5107389;27;20134;-77
2023/12/31 12:56:27;;;;;;;4.95;2.25;;;8.80;99.90;;;;;;5112099;27;20038;-77